AirNav   Air Wisconsin Up To $57,000 Bonus
 
 1026 users online  

2CN7 Qualcomm Building N Heliport
San Diego, California, USA

GOING TO SAN DIEGO?


FAA INFORMATION EFFECTIVE 20 MAY 2021

Location

FAA Identifier: 2CN7
Lat/Long: 32-53-46.3800N 117-11-45.5800W
32-53.773000N 117-11.759667W
32.8962167,-117.1959944
(estimated)
Elevation: 486 ft. / 148 m (estimated)
ROOFTOP.
From city: 11 miles N of SAN DIEGO, CA
Time zone: UTC -7 (UTC -8 during Standard Time)
Zip code: 92121

Heliport Operations

Heliport use: Private use. Permission required prior to landing
Activation date: 11/2007
Control tower: no
ARTCC: LOS ANGELES CENTER
FSS: SAN DIEGO FLIGHT SERVICE STATION
Attendance: CONTINUOUS
Segmented circle: no
Lights: ACTVT PERI LGTS - 123.05.

Heliport Communications

WX ASOS at MYF (6 nm SE): 126.9 (858-576-4337)
WX ASOS at SAN (10 nm S): PHONE 619-296-8934
WX AWOS-3P at SEE (12 nm E): 125.45 (619-449-1228)
WX ASOS at CRQ (15 nm N): PHONE 760-930-0864
WX ASOS at RNM (17 nm NE): PHONE 760-789-7699

Nearby radio navigation aids

VOR radial/distance  VOR name  Freq  Var
MZBr357/7.0MISSION BAY VORTAC117.8015E
PGYr313/20.3POGGI VORTAC116.4514E
OCNr137/23.5OCEANSIDE VORTAC115.3015E
TIJr318/24.6TIJUANA VOR/DME116.5012E
JLIr229/34.0JULIAN VORTAC114.0015E

Heliport Services

Runway Information

Helipad H1

Dimensions: 48 x 48 ft. / 15 x 15 m
Surface: mats
Runway edge lights: PERI
Latitude: 32-53.773000N
Longitude: 117-11.759667W
Elevation: 486.0 ft.
Traffic pattern: leftleft

Heliport Ownership and Management from official FAA records

Ownership: Privately-owned
Owner: QUALCOMM
5775 MOREHOUSE DR
SAN DIEGO, CA 92121
Phone 858-651-4658
Manager: KEN DUMONT, FACILITIES ENGINEER II
5775 MOREHOUSE DR
SAN DIEGO, CA 92121
Phone 858-658-2625
ADDNL CTC GREGORY MICHAEL WOODS 314-566-9702 GMWOODS@QUALCOMM.COM

Additional Remarks

FOR CD CTC LOS ANGELES ARTCC AT 661-575-2079.

Instrument Procedures

There are no published instrument procedures at 2CN7.

Some nearby airports with instrument procedures:

KNKX - Miramar MCAS (Joe Foss Field) Airport (3 nm SE)
KMYF - Montgomery-Gibbs Executive Airport (6 nm SE)
KSAN - San Diego International Airport (10 nm S)
KNZY - North Island Naval Air Station (Halsey Field) (12 nm S)
KSEE - Gillespie Field Airport (12 nm E)
KCRQ - Mc Clellan-Palomar Airport (15 nm N)
KRNM - Ramona Airport (17 nm NE)
 
Loc | Ops | Rwys | IFR | FBO | Links
Com | Nav | Svcs | Stats | Notes
Aerial photo
No photo
 
Sectional chart

 
Airport distance calculator
Flying to Qualcomm Building N Heliport? Find the distance to fly.

From to 2CN7

Sunrise and sunset
Times for 15-Jun-2021
 Local
(UTC-7)
 Zulu
(UTC)
Morning civil twilight05:1212:12
Sunrise05:4112:41
Sunset19:5802:58
Evening civil twilight20:2603:26

Current date and time
Zulu (UTC)  16-Jun-2021 00:38:52
Local (UTC-7)  15-Jun-2021 17:38:52
 
METAR
KNKX 
4nm SE 
152355Z 33008KT 10SM BKN180 32/13 A2977 RMK AO2 SLP075 T03220128 10322 20278 58027 $
KMYF 
6nm SE 
152353Z 33010KT 10SM CLR 33/12 A2978 RMK AO2 SLP078 T03280117 10333 20256 58026
KSAN 
10nm S 
152351Z 29007KT 10SM FEW180 BKN250 30/16 A2977 RMK AO2 SLP081 T03000156 10300 20244 58031
KNZY 
12nm S 
152352Z 30012KT 10SM FEW180 BKN250 27/15 A2976 RMK AO2 SLP078 T02670150 10272 20217 56029
KSEE 
13nm E 
152347Z 30009G16KT 10SM SKC 38/04 A2975
KCRQ 
15nm N 
152353Z 28005KT 10SM CLR 26/15 A2977 RMK AO2 SLP079 T02560150 10267 20211 58028
KRNM 
16nm NE 
152353Z 29013KT 10SM CLR 37/06 A2983 RMK AO2 SLP081 T03670061 10378 20333 58019
TAF
KNKX 
4nm SE 
1521/1621 30008KT 9999 SKC QNH2978INS FM160230 VRB05KT 9999 SKC QNH2979INS BECMG 1607/1609 VRB05KT 9999 SCT010 QNH2980INS TEMPO 1609/1615 3200 BR BKN007 FM161630 24009KT 9999 SKC QNH2982INS T31/1522Z T16/1613Z
KSAN 
10nm S 
152043Z 1521/1624 30010KT P6SM BKN250 FM160230 19005KT P6SM FEW008 SCT200 FM160700 19010KT P6SM BKN008 FM161600 20011KT P6SM SCT010 SCT180
KNZY 
12nm S 
1523/1623 30010KT 9999 FEW180 BKN250 QNH2975INS FM160200 21006KT 9999 FEW008 FEW180 BKN250 QNH2976INS FM160600 18006KT 9999 SCT007 BKN250 QNH2977INS FM160800 17006KT 9999 BKN007 BKN250 QNH2979INS FM161700 20011KT 9999 SCT008 BKN250 QNH2981INS T17/1614Z T23/1621Z FS30139
KCRQ 
15nm N 
151736Z 1518/1618 26008KT P6SM SCT250 FM160130 VRB04KT P6SM FEW007 SCT200 FM160800 16005KT P6SM BKN006 FM161600 20006KT P6SM FEW008 SCT180
NOTAMs
Click for the latest NOTAMs
NOTAMs are issued by the DoD/FAA and will open in a separate window not controlled by AirNav.

 

 
 

Would you like to see your business listed on this page?

 If your business provides an interesting product or service to pilots, flight crews, aircraft, or users of the Qualcomm Building N Heliport, you should consider listing it here.  To start the listing process, click on the button below
 
Add a business
 

Other Pages about Qualcomm Building N Heliport

Update a link
 
Copyright © AirNav, LLC. All rights reserved. Privacy Policy  Contact